createdAt,value
2018-12-19T15:03:43.831Z,7.53
2018-12-19T15:08:48.911Z,12.30
2018-12-19T15:13:53.749Z,9.45
2018-12-19T15:18:59.497Z,22.15
2018-12-19T15:24:03.999Z,12.50
2018-12-19T15:29:12.386Z,10.90
2018-12-19T15:34:19.546Z,9.20
2018-12-19T15:39:25.719Z,8.80
2018-12-19T15:44:35.355Z,7.40
2018-12-19T15:49:56.457Z,7.72
2018-12-19T15:55:03.318Z,9.10
2018-12-19T16:00:18.080Z,7.80
2018-12-19T16:05:25.009Z,9.48
2018-12-19T16:10:30.312Z,8.13
2018-12-19T16:15:37.214Z,7.67
2018-12-19T16:20:45.345Z,10.28
2018-12-19T16:25:50.032Z,11.83
2018-12-19T16:30:55.050Z,17.15
2018-12-19T16:36:00.248Z,21.60
2018-12-19T16:41:04.998Z,25.35
2018-12-19T16:46:10.179Z,24.45
2018-12-19T16:51:14.808Z,23.95
2018-12-19T16:56:19.337Z,23.77
2018-12-19T17:01:24.078Z,21.17
2018-12-19T17:06:29.268Z,20.82
2018-12-19T17:11:34.338Z,22.20
2018-12-19T17:16:39.448Z,20.60
2018-12-19T17:21:44.147Z,19.80
2018-12-19T17:26:49.378Z,19.55
2018-12-19T17:31:54.268Z,18.82
2018-12-19T17:36:59.519Z,18.30
2018-12-19T17:42:04.607Z,19.10
2018-12-19T17:47:09.173Z,18.52
2018-12-19T17:52:13.888Z,18.00
2018-12-19T17:57:18.517Z,17.40
2018-12-19T18:02:23.507Z,17.37
2018-12-19T18:07:28.658Z,17.30
2018-12-19T18:12:33.779Z,17.57
2018-12-19T18:17:38.299Z,17.27
2018-12-19T18:22:42.918Z,14.87
2018-12-19T18:27:47.618Z,16.32
2018-12-19T18:32:52.439Z,15.38
2018-12-19T18:37:57.480Z,14.87
